createdAt,value
2022-10-15T00:09:18.059Z,10.74
2022-10-15T00:14:22.004Z,10.18
2022-10-15T00:19:50.025Z,11.78
2022-10-15T00:30:06.549Z,11.65
2022-10-15T01:02:09.402Z,11.31
2022-10-15T01:07:06.858Z,11.30
2022-10-15T01:13:03.053Z,9.85
2022-10-15T01:18:02.824Z,10.40
2022-10-15T01:23:15.617Z,9.89
2022-10-15T01:28:29.170Z,10.63
2022-10-15T01:34:40.859Z,11.10
2022-10-15T01:39:41.293Z,11.01
2022-10-15T01:44:46.633Z,10.60
2022-10-15T01:49:53.790Z,10.82
2022-10-15T01:54:58.257Z,10.47
2022-10-15T02:00:30.671Z,10.43
2022-10-15T02:05:40.130Z,9.38
2022-10-15T02:10:48.079Z,10.07
2022-10-15T02:22:50.010Z,9.40
2022-10-15T02:27:50.304Z,9.15
2022-10-15T02:32:50.229Z,9.41
2022-10-15T02:38:30.989Z,10.54
2022-10-15T02:51:00.502Z,10.44
2022-10-15T02:56:00.114Z,8.83
2022-10-15T03:00:54.106Z,9.87
2022-10-15T03:06:13.319Z,9.51
2022-10-15T03:11:14.823Z,10.23
2022-10-15T03:16:09.821Z,8.90
2022-10-15T03:21:05.334Z,8.41
2022-10-15T03:25:59.805Z,9.74
2022-10-15T03:32:05.465Z,8.72
2022-10-15T03:37:06.332Z,8.54
2022-10-15T03:42:01.567Z,10.01
2022-10-15T03:47:03.238Z,8.73
2022-10-15T03:52:08.099Z,9.02
2022-10-15T03:57:02.987Z,8.64
2022-10-15T04:02:03.281Z,9.93
2022-10-15T04:13:56.290Z,8.68
2022-10-15T04:19:07.360Z,9.34
2022-10-15T04:24:35.834Z,8.35
2022-10-15T04:41:44.042Z,9.90
2022-10-15T04:47:34.463Z,9.92
2022-10-15T04:52:41.504Z,9.88
2022-10-15T05:04:24.143Z,8.30
2022-10-15T05:09:23.570Z,9.44
2022-10-15T05:14:20.447Z,8.60
2022-10-15T05:20:56.882Z,8.50
2022-10-15T05:26:48.359Z,9.71
2022-10-15T05:31:42.347Z,10.13
2022-10-15T05:36:45.802Z,10.23
2022-10-15T05:41:43.028Z,9.99
2022-10-15T05:46:36.483Z,10.20
2022-10-15T05:51:30.198Z,10.27
2022-10-15T05:56:29.462Z,10.30
2022-10-15T06:01:24.131Z,9.38
2022-10-15T06:06:21.703Z,10.49
2022-10-15T06:11:14.873Z,10.52
2022-10-15T06:16:08.480Z,10.37
2022-10-15T06:21:03.196Z,10.57
2022-10-15T06:25:56.470Z,10.38
2022-10-15T06:30:49.645Z,10.72
2022-10-15T06:35:42.773Z,10.95
2022-10-15T06:40:38.805Z,11.14
2022-10-15T06:45:31.833Z,11.11
2022-10-15T06:50:26.888Z,11.30
2022-10-15T06:55:19.994Z,11.55
2022-10-15T07:00:15.536Z,11.74
2022-10-15T07:05:09.934Z,11.99
2022-10-15T07:10:03.497Z,11.82
2022-10-15T07:14:57.272Z,11.99
2022-10-15T07:19:51.831Z,12.05
2022-10-15T07:24:44.976Z,12.25
2022-10-15T07:29:38.296Z,12.21
2022-10-15T07:34:31.763Z,12.47
2022-10-15T07:39:26.465Z,12.59
2022-10-15T07:44:19.699Z,12.77
2022-10-15T07:49:12.880Z,12.90
2022-10-15T07:54:06.112Z,12.85
2022-10-15T07:59:00.840Z,13.03
2022-10-15T08:03:54.000Z,13.38
2022-10-15T08:08:47.897Z,13.45
2022-10-15T08:13:42.515Z,13.55
2022-10-15T08:18:38.007Z,13.57
2022-10-15T08:23:31.227Z,13.52
2022-10-15T08:28:27.080Z,13.38
2022-10-15T08:33:20.261Z,13.67
2022-10-15T08:38:19.760Z,13.99
2022-10-15T08:43:22.038Z,14.51
2022-10-15T08:48:21.268Z,14.84
2022-10-15T08:53:20.227Z,15.72
2022-10-15T08:58:16.679Z,16.28
2022-10-15T09:03:25.226Z,16.61
2022-10-15T09:08:28.002Z,16.25
2022-10-15T09:13:28.112Z,16.21
2022-10-15T09:18:24.957Z,16.37
2022-10-15T09:23:22.411Z,16.56
2022-10-15T09:28:19.757Z,16.72
2022-10-15T09:33:20.649Z,17.40
2022-10-15T09:38:35.297Z,16.59
2022-10-15T09:43:35.435Z,18.11
2022-10-15T09:48:29.450Z,18.34
2022-10-15T09:53:37.749Z,18.18
2022-10-15T09:58:38.734Z,18.09
2022-10-15T10:03:34.260Z,17.66
2022-10-15T10:08:33.387Z,17.46
2022-10-15T10:13:29.686Z,17.49
2022-10-15T10:18:29.194Z,17.90
2022-10-15T10:23:24.650Z,18.11
2022-10-15T10:28:26.340Z,18.17
2022-10-15T10:33:26.770Z,18.01
2022-10-15T10:38:22.522Z,18.09
2022-10-15T10:43:23.073Z,17.83
2022-10-15T10:48:21.555Z,17.83
2022-10-15T10:53:25.972Z,18.14
2022-10-15T10:58:26.285Z,18.40
2022-10-15T11:03:34.712Z,18.67
2022-10-15T11:08:34.067Z,18.75
2022-10-15T11:13:41.833Z,18.60
2022-10-15T11:18:54.566Z,18.98
2022-10-15T11:24:06.742Z,19.04
2022-10-15T11:29:14.188Z,19.17
2022-10-15T11:34:19.346Z,19.27
2022-10-15T11:39:46.305Z,19.30
2022-10-15T11:44:57.360Z,19.13
2022-10-15T11:50:05.573Z,18.39
2022-10-15T11:55:05.259Z,19.06
2022-10-15T12:00:04.200Z,19.23
2022-10-15T12:05:08.558Z,19.47
2022-10-15T12:10:07.623Z,19.40
2022-10-15T12:15:17.052Z,19.33
2022-10-15T12:20:17.097Z,18.63
2022-10-15T12:25:41.713Z,19.02
2022-10-15T12:30:40.162Z,19.63
2022-10-15T12:35:38.761Z,19.36
2022-10-15T12:40:33.507Z,19.45
2022-10-15T12:45:37.361Z,19.57
2022-10-15T12:50:37.393Z,19.63
2022-10-15T12:55:33.913Z,19.63
2022-10-15T13:00:38.866Z,19.37
2022-10-15T13:05:35.716Z,19.40
2022-10-15T13:10:31.145Z,19.04
2022-10-15T13:15:27.130Z,19.52
2022-10-15T13:20:37.036Z,19.27
2022-10-15T13:25:31.694Z,19.12
2022-10-15T13:30:25.117Z,19.17
2022-10-15T13:35:21.980Z,18.24
2022-10-15T13:40:21.928Z,19.03
2022-10-15T13:45:20.299Z,18.68
2022-10-15T13:50:25.149Z,18.88
2022-10-15T13:55:25.493Z,18.82
2022-10-15T14:00:29.018Z,18.24
2022-10-15T14:05:25.250Z,18.58
2022-10-15T14:10:46.456Z,18.67
2022-10-15T14:16:00.418Z,18.77
2022-10-15T14:20:56.683Z,18.68
2022-10-15T14:25:55.631Z,18.53
2022-10-15T14:31:38.376Z,18.31
2022-10-15T14:36:53.449Z,17.51
2022-10-15T14:43:26.348Z,18.62
2022-10-15T16:06:21.456Z,15.82
2022-10-15T16:11:40.084Z,16.83
2022-10-15T16:16:54.138Z,15.48
2022-10-15T16:21:55.195Z,15.02
2022-10-15T16:27:26.783Z,15.07
2022-10-15T16:32:56.127Z,15.19
2022-10-15T16:38:41.596Z,14.70
2022-10-15T16:43:58.792Z,15.68
2022-10-15T16:49:05.272Z,15.25
2022-10-15T16:54:26.757Z,15.38
2022-10-15T16:59:24.431Z,15.00
2022-10-15T17:04:31.258Z,15.71
2022-10-15T17:09:25.620Z,14.71
2022-10-15T17:14:43.289Z,14.26
2022-10-15T17:19:43.019Z,15.11
2022-10-15T17:25:28.213Z,14.77
2022-10-15T17:31:54.879Z,15.43
2022-10-15T18:03:56.173Z,13.38
2022-10-15T18:36:39.280Z,13.11
2022-10-15T19:37:07.912Z,13.43
2022-10-15T19:42:46.789Z,13.63
2022-10-15T19:47:51.601Z,14.07
2022-10-15T19:53:03.845Z,14.02
2022-10-15T19:58:23.240Z,12.86
2022-10-15T20:08:38.051Z,13.10
2022-10-15T20:19:44.651Z,13.29
2022-10-15T20:25:19.322Z,13.19
2022-10-15T20:30:16.874Z,13.38
2022-10-15T20:35:11.382Z,12.84
2022-10-15T20:40:15.024Z,13.33
2022-10-15T20:57:47.965Z,11.32
2022-10-15T21:02:52.076Z,12.34
2022-10-15T21:08:27.249Z,11.14
2022-10-15T21:13:29.497Z,11.84
2022-10-15T21:18:30.067Z,10.57
2022-10-15T21:23:24.955Z,10.15
2022-10-15T21:28:20.500Z,11.21
2022-10-15T21:33:13.964Z,11.49
2022-10-15T21:38:10.026Z,10.30
2022-10-15T21:43:10.283Z,11.52
2022-10-15T21:48:07.029Z,10.10
2022-10-15T21:53:03.962Z,9.96
2022-10-15T21:58:02.443Z,11.02
2022-10-15T22:03:12.335Z,11.35
2022-10-15T22:08:19.249Z,11.31
2022-10-15T22:13:14.523Z,10.11
2022-10-15T22:18:30.658Z,10.22
2022-10-15T22:24:01.211Z,11.07
2022-10-15T23:03:46.569Z,10.58
2022-10-15T23:08:45.490Z,9.19
2022-10-15T23:21:16.074Z,8.87
